Time;durP1;ratioP1;P1;durP2;ratioP2;P2;SDS_P1;SDS_P2;PMS_P1;PMS_P2;Temp;Humidity;BMP_temperature;BMP_pressure;BME280_temperature;BME280_humidity;BME280_pressure;Samples;Min_cycle;Max_cycle;Signal;HPM_P1;HPM_P2
2021/07/16 00:03:27;;;;;;;8.20;4.10;;;;;;;14.76;100.00;99080.13;10412842;28;20231;-78
2021/07/16 00:08:46;;;;;;;4.23;3.77;;;;;;;14.71;100.00;99075.06;10374673;28;20220;-81
2021/07/16 00:14:05;;;;;;;5.33;3.80;;;;;;;14.65;100.00;99077.59;10388796;28;20693;-80
2021/07/16 00:19:25;;;;;;;4.27;3.97;;;;;;;14.55;100.00;99070.25;10386645;28;20181;-79
2021/07/16 00:24:43;;;;;;;6.47;4.43;;;;;;;14.51;100.00;99066.00;10374197;28;20703;-79
2021/07/16 00:30:05;;;;;;;4.30;3.90;;;;;;;14.63;100.00;99073.66;10407079;28;20589;-78
2021/07/16 00:35:24;;;;;;;3.97;3.70;;;;;;;14.58;100.00;99068.63;10442400;28;20184;-77
2021/07/16 00:40:42;;;;;;;4.30;4.10;;;;;;;14.49;100.00;99074.75;10414888;28;20180;-78
2021/07/16 00:46:02;;;;;;;4.07;3.73;;;;;;;14.37;100.00;99085.66;10426281;28;20207;-79
2021/07/16 00:51:21;;;;;;;5.33;4.10;;;;;;;14.28;100.00;99079.09;10440366;28;20198;-79
2021/07/16 00:56:40;;;;;;;3.77;3.57;;;;;;;14.33;100.00;99084.16;10444504;28;20274;-84
2021/07/16 01:02:00;;;;;;;3.50;3.30;;;;;;;14.20;100.00;99081.22;10453085;28;20183;-78
2021/07/16 01:07:20;;;;;;;3.10;2.80;;;;;;;14.09;100.00;99088.91;10465084;28;20725;-81
2021/07/16 01:12:40;;;;;;;6.83;4.17;;;;;;;14.12;100.00;99077.03;10430099;28;20537;-79
2021/07/16 01:18:00;;;;;;;3.73;3.33;;;;;;;14.09;100.00;99080.59;10461310;28;20179;-82
2021/07/16 01:23:22;;;;;;;6.17;3.80;;;;;;;14.03;100.00;99074.00;10468585;28;20179;-81
2021/07/16 01:28:41;;;;;;;6.20;3.60;;;;;;;14.20;100.00;99072.13;10438572;28;20689;-86
2021/07/16 01:34:00;;;;;;;10.67;3.90;;;;;;;14.03;100.00;99084.25;10427425;28;20184;-81
2021/07/16 01:39:19;;;;;;;5.03;3.70;;;;;;;13.86;100.00;99080.63;10437807;28;20641;-84
2021/07/16 01:44:40;;;;;;;3.60;3.30;;;;;;;13.71;100.00;99076.53;10461953;28;20597;-83
2021/07/16 01:50:05;;;;;;;3.53;3.23;;;;;;;13.59;100.00;99074.34;10436921;28;20693;-82
2021/07/16 01:55:25;;;;;;;6.17;4.63;;;;;;;13.82;100.00;99068.81;10465965;28;20184;-82
2021/07/16 02:00:47;;;;;;;4.17;3.87;;;;;;;13.85;100.00;99076.28;10463229;28;20191;-82
2021/07/16 02:06:06;;;;;;;10.50;5.40;;;;;;;13.81;100.00;99072.78;10461190;28;20660;-80
2021/07/16 02:11:28;;;;;;;11.20;5.60;;;;;;;13.85;100.00;99069.97;10434458;28;20221;-80
2021/07/16 02:16:47;;;;;;;9.20;5.93;;;;;;;13.82;100.00;99071.56;10457869;28;20594;-82
2021/07/16 02:22:06;;;;;;;5.43;4.90;;;;;;;13.83;100.00;99083.44;10425900;28;20195;-80
2021/07/16 02:27:26;;;;;;;18.20;4.90;;;;;;;13.78;100.00;99084.69;10451322;28;20224;-87
2021/07/16 02:32:46;;;;;;;5.00;4.60;;;;;;;13.76;100.00;99084.31;10444516;28;20196;-79
2021/07/16 02:38:05;;;;;;;5.83;5.13;;;;;;;13.74;100.00;99092.25;10434064;28;20537;-80
2021/07/16 02:43:26;;;;;;;4.77;4.10;;;;;;;13.66;100.00;99090.03;10403076;28;20640;-82
2021/07/16 02:48:45;;;;;;;8.50;3.87;;;;;;;13.66;100.00;99095.56;10422761;28;20199;-80
2021/07/16 02:54:04;;;;;;;9.67;4.60;;;;;;;13.56;100.00;99099.28;10440840;28;20232;-85
2021/07/16 02:59:23;;;;;;;6.50;4.77;;;;;;;13.53;100.00;99095.38;10426466;28;20188;-78
2021/07/16 03:04:43;;;;;;;3.90;3.60;;;;;;;13.51;100.00;99098.97;10434384;28;20670;-80
2021/07/16 03:10:06;;;;;;;6.20;3.60;;;;;;;13.57;100.00;99100.84;10426297;28;20208;-83
2021/07/16 03:15:26;;;;;;;4.70;4.13;;;;;;;13.70;100.00;99108.13;10452594;28;20634;-80
2021/07/16 03:20:46;;;;;;;4.07;3.77;;;;;;;13.55;100.00;99120.63;10422455;28;20259;-79
2021/07/16 03:26:06;;;;;;;4.03;3.07;;;;;;;13.45;100.00;99119.97;10417271;28;20211;-79
2021/07/16 03:31:24;;;;;;;3.10;2.87;;;;;;;13.39;100.00;99127.94;10438755;28;20227;-82
2021/07/16 03:36:43;;;;;;;3.93;3.60;;;;;;;13.35;100.00;99126.44;10447723;28;20187;-81
2021/07/16 03:42:03;;;;;;;3.60;3.30;;;;;;;13.32;100.00;99138.34;10430897;28;20581;-81
2021/07/16 03:47:22;;;;;;;4.67;3.63;;;;;;;13.27;100.00;99136.03;10437972;28;20207;-82
2021/07/16 03:52:41;;;;;;;6.73;3.10;;;;;;;13.29;100.00;99144.69;10421807;28;20192;-80
2021/07/16 03:58:01;;;;;;;6.30;3.03;;;;;;;13.52;100.00;99135.25;10430330;28;20176;-80
2021/07/16 04:03:21;;;;;;;5.30;3.17;;;;;;;13.61;100.00;99141.06;10457229;28;20187;-82
2021/07/16 04:08:40;;;;;;;4.70;3.23;;;;;;;13.52;100.00;99153.03;10439765;28;20211;-82
2021/07/16 04:13:59;;;;;;;3.90;3.60;;;;;;;13.48;100.00;99166.13;10433098;28;20278;-81
2021/07/16 04:19:18;;;;;;;2.80;2.60;;;;;;;13.46;100.00;99169.28;10400345;28;20189;-81
2021/07/16 04:24:39;;;;;;;4.80;3.40;;;;;;;13.54;100.00;99168.78;10445068;28;20627;-84
2021/07/16 04:29:59;;;;;;;4.73;2.60;;;;;;;13.60;100.00;99164.34;10450736;28;20231;-83
2021/07/16 04:35:18;;;;;;;3.27;3.07;;;;;;;13.67;100.00;99167.00;10455925;28;20637;-84
2021/07/16 04:40:37;;;;;;;3.70;2.90;;;;;;;13.77;100.00;99165.31;10413443;28;20267;-85
2021/07/16 04:45:56;;;;;;;6.50;3.30;;;;;;;13.83;100.00;99167.16;10413389;28;20207;-83
2021/07/16 04:51:33;;;;;;;3.30;2.53;;;;;;;13.96;100.00;99164.59;10446504;28;20275;-84
2021/07/16 04:56:53;;;;;;;4.30;3.10;;;;;;;14.12;100.00;99167.53;10454520;28;20175;-82
2021/07/16 05:02:12;;;;;;;3.27;2.97;;;;;;;14.18;100.00;99180.47;10415907;28;20650;-85
2021/07/16 05:07:31;;;;;;;6.53;3.70;;;;;;;14.17;100.00;99178.91;10416302;28;20689;-82
2021/07/16 05:12:50;;;;;;;5.17;3.60;;;;;;;14.25;100.00;99174.81;10454488;28;20179;-87
2021/07/16 05:18:08;;;;;;;10.53;3.00;;;;;;;14.44;100.00;99176.84;10432655;28;20183;-83
2021/07/16 05:23:28;;;;;;;8.53;3.67;;;;;;;14.65;100.00;99187.53;10414190;28;20180;-86
2021/07/16 05:28:49;;;;;;;5.73;3.30;;;;;;;14.84;100.00;99195.09;10425104;28;20227;-84
2021/07/16 05:34:08;;;;;;;4.10;3.77;;;;;;;14.97;100.00;99194.06;10455642;28;20171;-82
2021/07/16 05:39:28;;;;;;;13.73;3.40;;;;;;;15.39;100.00;99193.19;10428926;28;20247;-89
2021/07/16 05:44:47;;;;;;;12.93;2.83;;;;;;;15.84;100.00;99197.72;10421223;28;20180;-84
2021/07/16 05:50:06;;;;;;;6.80;3.00;;;;;;;16.16;100.00;99197.75;10443752;28;20211;-85
2021/07/16 05:55:25;;;;;;;4.93;3.53;;;;;;;16.46;100.00;99206.53;10462928;28;20646;-84
2021/07/16 06:00:44;;;;;;;3.73;3.53;;;;;;;16.62;100.00;99225.97;10433497;28;20183;-87
2021/07/16 06:06:03;;;;;;;4.50;2.97;;;;;;;16.91;100.00;99227.56;10420715;28;20290;-86
2021/07/16 06:11:23;;;;;;;3.33;3.13;;;;;;;17.03;100.00;99237.19;10451795;28;20179;-83
2021/07/16 06:16:42;;;;;;;4.93;3.63;;;;;;;17.12;100.00;99238.09;10446610;28;20637;-86
2021/07/16 06:22:01;;;;;;;4.40;4.00;;;;;;;17.23;100.00;99238.59;10423763;28;20183;-86
2021/07/16 06:27:20;;;;;;;4.07;3.77;;;;;;;17.59;100.00;99234.41;10418583;28;20216;-88
2021/07/16 06:32:39;;;;;;;8.97;4.70;;;;;;;17.51;100.00;99246.19;10419844;28;20180;-87
2021/07/16 06:38:00;;;;;;;5.00;4.23;;;;;;;17.59;100.00;99244.75;10407779;28;20213;-81
2021/07/16 06:43:19;;;;;;;8.10;5.23;;;;;;;18.03;100.00;99252.16;10459545;28;20187;-87
2021/07/16 06:48:38;;;;;;;5.17;4.47;;;;;;;18.50;100.00;99249.03;10450232;28;20745;-87
2021/07/16 06:53:57;;;;;;;5.10;4.73;;;;;;;19.18;100.00;99254.69;10418831;28;20180;-82
2021/07/16 06:59:16;;;;;;;4.30;3.87;;;;;;;19.86;100.00;99262.94;10417746;28;20532;-81
2021/07/16 07:04:35;;;;;;;5.20;4.67;;;;;;;20.01;100.00;99275.16;10442243;28;20196;-82
2021/07/16 07:09:54;;;;;;;5.00;4.50;;;;;;;20.21;99.61;99279.91;10447932;28;20680;-83
2021/07/16 07:15:13;;;;;;;4.80;4.20;;;;;;;20.33;97.22;99272.66;10425187;28;20184;-83
2021/07/16 07:20:34;;;;;;;5.37;4.87;;;;;;;19.99;99.48;99266.44;10417607;28;20184;-83
2021/07/16 07:25:53;;;;;;;5.00;4.70;;;;;;;20.41;98.94;99269.13;10417996;28;20200;-83
2021/07/16 07:31:12;;;;;;;5.90;4.20;;;;;;;21.11;95.57;99274.59;10415737;28;20291;-80
2021/07/16 07:36:31;;;;;;;4.30;4.10;;;;;;;21.89;92.52;99274.25;10417134;28;20192;-81
2021/07/16 07:41:50;;;;;;;5.00;4.50;;;;;;;22.36;84.72;99274.47;10404803;28;20191;-83
2021/07/16 07:47:09;;;;;;;4.30;4.00;;;;;;;22.27;88.60;99268.84;10457565;28;20203;-78
2021/07/16 07:52:28;;;;;;;4.17;3.90;;;;;;;22.33;87.93;99266.22;10448342;28;20184;-79
2021/07/16 07:57:47;;;;;;;4.03;3.73;;;;;;;23.23;83.77;99263.69;10415016;28;20176;-79
2021/07/16 08:03:06;;;;;;;3.90;3.50;;;;;;;24.00;80.90;99266.72;10440220;28;20297;-82
2021/07/16 08:08:25;;;;;;;3.73;3.43;;;;;;;24.96;76.07;99272.09;10456794;28;20207;-81
2021/07/16 08:13:44;;;;;;;4.10;3.80;;;;;;;25.49;74.29;99276.09;10455611;28;20265;-80
2021/07/16 08:19:03;;;;;;;4.30;3.90;;;;;;;26.12;70.94;99279.38;10456975;28;20594;-80
2021/07/16 08:24:23;;;;;;;4.50;4.10;;;;;;;25.78;70.61;99284.41;10432203;28;20590;-78
2021/07/16 08:29:42;;;;;;;4.93;4.40;;;;;;;25.86;67.76;99295.53;10413300;28;20725;-82
2021/07/16 08:35:01;;;;;;;5.10;4.33;;;;;;;25.54;70.05;99295.13;10444209;28;20188;-81
2021/07/16 08:40:20;;;;;;;4.30;4.00;;;;;;;25.89;67.69;99294.50;10427721;28;20192;-79
2021/07/16 08:45:39;;;;;;;4.33;4.03;;;;;;;26.91;68.08;99295.13;10447501;28;20222;-82
2021/07/16 08:51:00;;;;;;;4.83;4.40;;;;;;;27.57;59.68;99284.16;10456031;28;20171;-80
2021/07/16 08:56:21;;;;;;;4.47;3.70;;;;;;;27.61;62.59;99279.06;10415460;28;20187;-81
2021/07/16 09:01:42;;;;;;;5.30;4.80;;;;;;;28.52;58.89;99279.72;10399703;28;20212;-83
2021/07/16 09:07:01;;;;;;;5.80;4.63;;;;;;;29.00;59.63;99279.41;10455437;28;20587;-83
2021/07/16 09:12:20;;;;;;;8.40;4.77;;;;;;;29.49;54.67;99284.91;10452359;28;20172;-82
2021/07/16 09:17:43;;;;;;;5.23;4.60;;;;;;;28.69;55.34;99283.28;10422444;28;20176;-79
2021/07/16 09:23:19;;;;;;;7.00;5.07;;;;;;;29.00;52.82;99285.06;10434101;28;20188;-79
2021/07/16 09:28:41;;;;;;;4.60;4.40;;;;;;;28.86;52.87;99284.06;10431112;28;20576;-79
2021/07/16 09:34:06;;;;;;;5.63;5.10;;;;;;;29.00;53.42;99282.25;10461047;28;20191;-79
2021/07/16 09:39:25;;;;;;;5.07;4.57;;;;;;;28.40;56.78;99272.53;10462777;28;20179;-78
2021/07/16 09:44:45;;;;;;;4.60;4.17;;;;;;;28.45;55.37;99274.56;10445710;28;20214;-79
2021/07/16 09:50:12;;;;;;;4.00;3.70;;;;;;;29.25;53.47;99274.19;10462034;28;20211;-78
2021/07/16 09:55:31;;;;;;;4.80;4.50;;;;;;;30.87;47.75;99275.69;10430573;28;20183;-78
2021/07/16 10:00:51;;;;;;;4.03;3.80;;;;;;;30.38;50.21;99275.34;10419491;28;20168;-79
2021/07/16 10:06:13;;;;;;;4.50;4.00;;;;;;;30.87;49.11;99289.09;10456026;28;20252;-79
2021/07/16 10:11:33;;;;;;;4.30;4.10;;;;;;;31.74;47.33;99296.63;10460140;28;20610;-78
2021/07/16 10:16:53;;;;;;;4.67;3.50;;;;;;;32.18;45.07;99290.34;10457289;28;20187;-79
2021/07/16 10:22:13;;;;;;;4.90;4.57;;;;;;;33.12;40.70;99286.69;10441376;28;20184;-80
2021/07/16 10:27:33;;;;;;;4.43;4.23;;;;;;;32.41;40.32;99280.13;10403087;28;20237;-80
2021/07/16 10:32:54;;;;;;;4.77;4.37;;;;;;;33.67;40.66;99278.53;10427816;28;20183;-79
2021/07/16 10:38:30;;;;;;;4.40;4.20;;;;;;;33.78;37.49;99278.28;10451277;28;20171;-80
2021/07/16 10:43:49;;;;;;;4.60;4.30;;;;;;;34.14;39.86;99276.44;10445857;28;20183;-79
2021/07/16 10:49:12;;;;;;;4.80;4.20;;;;;;;31.84;40.94;99277.13;10403466;28;20724;-79
2021/07/16 10:54:44;;;;;;;3.80;3.60;;;;;;;31.81;43.25;99278.97;10425181;28;20570;-78
2021/07/16 11:00:04;;;;;;;4.23;3.93;;;;;;;33.31;40.42;99277.44;10451861;28;20180;-81
2021/07/16 11:05:32;;;;;;;3.97;3.77;;;;;;;34.08;37.68;99267.25;10403389;28;20211;-80
2021/07/16 11:10:55;;;;;;;4.37;4.07;;;;;;;33.85;39.17;99269.03;10418383;28;20203;-81
2021/07/16 11:16:15;;;;;;;4.77;4.47;;;;;;;31.11;41.44;99269.25;10451670;28;20195;-80
2021/07/16 11:21:40;;;;;;;3.97;3.77;;;;;;;32.02;41.48;99265.72;10452449;28;20183;-80
2021/07/16 11:27:18;;;;;;;4.90;4.50;;;;;;;31.75;40.91;99266.88;10456330;28;20215;-81
2021/07/16 11:32:37;;;;;;;4.17;3.97;;;;;;;31.83;40.37;99256.41;10416238;28;20223;-81
2021/07/16 11:37:56;;;;;;;4.80;4.40;;;;;;;32.86;39.13;99260.97;10411655;28;20278;-78
2021/07/16 11:43:16;;;;;;;4.27;4.07;;;;;;;32.54;40.39;99257.38;10448600;28;20652;-79
2021/07/16 11:48:35;;;;;;;4.20;3.80;;;;;;;32.92;41.87;99253.06;10442597;28;20207;-80
2021/07/16 11:53:57;;;;;;;4.27;4.07;;;;;;;33.53;37.39;99256.25;10426594;28;20219;-79
2021/07/16 11:59:23;;;;;;;4.27;3.97;;;;;;;33.95;35.80;99250.13;10414982;28;20184;-79
2021/07/16 12:04:44;;;;;;;4.00;3.80;;;;;;;35.35;34.63;99243.34;10407743;28;20194;-80
2021/07/16 12:10:19;;;;;;;3.50;3.40;;;;;;;34.63;34.60;99238.06;10415900;28;20211;-80
2021/07/16 12:15:38;;;;;;;4.87;3.47;;;;;;;33.40;36.29;99230.63;10414836;28;20187;-78
2021/07/16 12:21:09;;;;;;;4.20;3.90;;;;;;;33.06;36.33;99229.72;10433893;28;20266;-83
2021/07/16 12:26:28;;;;;;;3.73;3.43;;;;;;;34.20;35.47;99225.66;10443870;28;20207;-80
2021/07/16 12:31:50;;;;;;;4.07;3.47;;;;;;;36.00;34.61;99229.13;10443085;28;20246;-81
2021/07/16 12:37:15;;;;;;;6.93;4.60;;;;;;;33.98;39.05;99237.59;10418938;28;20187;-85
2021/07/16 12:42:37;;;;;;;5.67;5.20;;;;;;;33.56;40.74;99229.47;10420920;28;20661;-79
2021/07/16 12:47:57;;;;;;;5.40;5.10;;;;;;;32.86;45.32;99238.94;10413928;28;20203;-80
2021/07/16 12:53:31;;;;;;;5.30;5.00;;;;;;;34.05;39.48;99234.06;10386018;28;20199;-80
2021/07/16 12:58:55;;;;;;;4.60;4.30;;;;;;;33.65;39.72;99238.38;10417178;28;20171;-80
2021/07/16 13:04:16;;;;;;;5.20;4.70;;;;;;;34.11;37.29;99234.72;10454670;28;20669;-81
2021/07/16 13:09:36;;;;;;;6.80;4.10;;;;;;;34.41;34.85;99235.00;10444578;28;20219;-79
2021/07/16 13:14:59;;;;;;;5.03;4.73;;;;;;;33.30;35.09;99230.28;10398075;28;20171;-80
2021/07/16 13:20:18;;;;;;;3.90;3.70;;;;;;;32.79;38.31;99225.34;10428833;28;20187;-81
2021/07/16 13:25:37;;;;;;;5.03;4.73;;;;;;;33.53;41.76;99248.44;10414157;28;20176;-82
2021/07/16 13:30:56;;;;;;;5.43;5.03;;;;;;;33.30;42.98;99250.25;10432731;28;20223;-82
2021/07/16 13:36:14;;;;;;;5.20;4.90;;;;;;;31.56;44.88;99267.44;10436199;28;20188;-83
2021/07/16 13:41:34;;;;;;;5.70;5.33;;;;;;;30.37;48.66;99251.84;10428349;28;20642;-84
2021/07/16 13:46:53;;;;;;;6.17;5.53;;;;;;;29.27;52.56;99253.81;10413246;28;20659;-84
2021/07/16 13:52:13;;;;;;;5.60;5.30;;;;;;;27.95;56.66;99258.84;10444099;28;20183;-86
2021/07/16 13:57:32;;;;;;;5.77;5.37;;;;;;;30.17;54.21;99260.00;10455786;28;20179;-87
2021/07/16 14:02:51;;;;;;;10.23;5.70;;;;;;;30.68;51.77;99256.25;10462459;28;20833;-79
2021/07/16 14:08:10;;;;;;;5.30;4.90;;;;;;;31.28;47.14;99258.44;10461620;28;20203;-79
2021/07/16 14:13:30;;;;;;;5.57;5.07;;;;;;;31.03;46.18;99251.25;10419547;28;20259;-79
2021/07/16 14:18:48;;;;;;;5.13;4.73;;;;;;;30.02;49.61;99249.06;10422181;28;20212;-79
2021/07/16 14:24:08;;;;;;;5.40;5.13;;;;;;;30.13;48.66;99246.13;10461209;28;20205;-78
2021/07/16 14:29:27;;;;;;;10.50;5.87;;;;;;;30.26;50.44;99254.00;10451987;28;20231;-79
2021/07/16 14:34:46;;;;;;;6.63;5.93;;;;;;;30.41;56.68;99272.22;10419804;28;20187;-79
2021/07/16 14:40:08;;;;;;;6.77;6.30;;;;;;;29.23;59.80;99271.09;10416566;28;20179;-82
2021/07/16 14:45:27;;;;;;;7.67;7.07;;;;;;;28.56;67.01;99265.28;10444279;28;20187;-87
2021/07/16 14:50:47;;;;;;;7.70;7.00;;;;;;;27.86;75.00;99266.81;10442431;28;20184;-84
2021/07/16 14:56:05;;;;;;;8.17;7.57;;;;;;;27.38;73.52;99256.88;10419124;28;20275;-84
2021/07/16 15:01:25;;;;;;;9.00;8.00;;;;;;;26.38;84.97;99256.75;10440950;28;20210;-87
2021/07/16 15:06:47;;;;;;;8.83;8.03;;;;;;;25.55;94.17;99260.81;10457983;28;20207;-85
2021/07/16 15:12:07;;;;;;;9.27;8.67;;;;;;;25.64;100.00;99257.06;10456155;28;20258;-83
2021/07/16 15:17:26;;;;;;;8.57;7.97;;;;;;;27.70;89.37;99242.09;10459167;28;20623;-85
2021/07/16 15:22:45;;;;;;;7.23;6.20;;;;;;;28.33;66.17;99258.91;10428567;28;20172;-84
2021/07/16 15:28:05;;;;;;;5.97;5.60;;;;;;;26.89;64.66;99275.13;10443948;28;20681;-86
2021/07/16 15:33:24;;;;;;;6.00;5.60;;;;;;;26.34;68.38;99278.75;10453661;28;20207;-83
2021/07/16 15:38:43;;;;;;;6.63;6.07;;;;;;;25.82;68.90;99271.66;10455275;28;20184;-83
2021/07/16 15:44:04;;;;;;;6.77;6.27;;;;;;;25.00;69.94;99274.19;10457150;28;20626;-79
2021/07/16 15:49:24;;;;;;;7.30;6.80;;;;;;;24.66;73.86;99276.25;10444400;28;20218;-83
2021/07/16 15:54:43;;;;;;;8.17;7.57;;;;;;;24.72;75.69;99280.69;10414287;28;20643;-82
2021/07/16 16:00:08;;;;;;;7.10;6.60;;;;;;;24.85;76.95;99266.31;10420829;28;20192;-81
2021/07/16 16:05:27;;;;;;;8.50;7.80;;;;;;;24.97;74.86;99274.41;10417406;28;20184;-81
2021/07/16 16:10:49;;;;;;;12.07;8.90;;;;;;;26.70;73.63;99271.13;10415441;28;20211;-82
2021/07/16 16:16:08;;;;;;;8.50;7.73;;;;;;;27.81;66.18;99253.41;10427965;28;20184;-81
2021/07/16 16:21:27;;;;;;;6.20;5.80;;;;;;;28.54;61.77;99253.72;10444405;28;20227;-79
2021/07/16 16:26:46;;;;;;;7.57;7.07;;;;;;;28.43;60.12;99256.56;10454707;28;20211;-81
2021/07/16 16:32:05;;;;;;;7.80;7.10;;;;;;;28.06;65.02;99264.50;10441659;28;20191;-82
2021/07/16 16:37:24;;;;;;;9.23;7.80;;;;;;;27.26;67.23;99264.53;10417685;28;20258;-80
2021/07/16 16:42:48;;;;;;;7.43;6.73;;;;;;;26.71;72.46;99269.06;10413878;28;20184;-79
2021/07/16 16:48:07;;;;;;;8.03;7.43;;;;;;;26.16;76.72;99279.91;10423192;28;20203;-81
2021/07/16 16:53:26;;;;;;;9.60;8.50;;;;;;;25.86;81.76;99289.88;10414945;28;20258;-81
2021/07/16 16:58:45;;;;;;;11.97;9.90;;;;;;;25.66;82.75;99291.16;10426804;28;20187;-80
2021/07/16 17:04:04;;;;;;;10.63;8.83;;;;;;;25.42;84.54;99285.78;10455981;28;20187;-80
2021/07/16 17:09:23;;;;;;;9.60;8.73;;;;;;;25.42;83.86;99293.44;10436483;28;20203;-80
2021/07/16 17:14:42;;;;;;;11.03;8.23;;;;;;;25.25;82.87;99287.59;10399426;28;20179;-80
2021/07/16 17:20:01;;;;;;;9.93;7.70;;;;;;;25.19;80.91;99295.22;10414393;28;20184;-83
2021/07/16 17:25:20;;;;;;;7.90;7.30;;;;;;;25.00;79.10;99301.56;10423604;28;20187;-79
2021/07/16 17:30:40;;;;;;;8.23;7.43;;;;;;;24.70;78.77;99317.00;10453336;28;20231;-81
2021/07/16 17:35:58;;;;;;;9.83;8.27;;;;;;;24.46;81.01;99321.97;10462941;28;20211;-77
2021/07/16 17:41:17;;;;;;;8.77;8.03;;;;;;;24.38;81.81;99328.47;10449127;28;20542;-79
2021/07/16 17:46:36;;;;;;;8.20;7.63;;;;;;;24.31;82.50;99318.38;10438648;28;20200;-79
2021/07/16 17:51:56;;;;;;;9.20;7.50;;;;;;;24.28;82.73;99319.34;10435628;28;20175;-81
2021/07/16 17:57:15;;;;;;;7.70;7.20;;;;;;;24.19;82.49;99324.28;10454793;28;20184;-79
2021/07/16 18:02:34;;;;;;;8.90;8.30;;;;;;;24.01;81.83;99326.53;10405711;28;20271;-77
2021/07/16 18:07:56;;;;;;;8.03;7.40;;;;;;;23.96;80.09;99327.97;10420432;28;20662;-79
2021/07/16 18:13:15;;;;;;;8.03;7.33;;;;;;;23.85;80.81;99327.75;10430354;28;20175;-81
2021/07/16 18:18:34;;;;;;;8.00;7.47;;;;;;;23.72;81.44;99334.88;10460018;28;20187;-80
2021/07/16 18:23:53;;;;;;;7.87;7.27;;;;;;;23.67;81.44;99329.94;10428908;28;20188;-78
2021/07/16 18:29:14;;;;;;;7.43;6.83;;;;;;;23.51;81.65;99330.38;10418314;28;20227;-78
2021/07/16 18:34:34;;;;;;;8.00;7.17;;;;;;;23.42;83.12;99350.88;10410941;28;20183;-80
2021/07/16 18:39:53;;;;;;;7.87;7.30;;;;;;;23.33;84.65;99352.22;10460960;28;20175;-77
2021/07/16 18:45:12;;;;;;;8.17;7.47;;;;;;;23.15;86.19;99357.94;10446957;28;20215;-80
2021/07/16 18:50:31;;;;;;;8.80;8.10;;;;;;;23.05;86.62;99362.81;10403657;28;20566;-78
2021/07/16 18:55:51;;;;;;;29.27;24.00;;;;;;;22.98;87.20;99376.38;10420220;28;20241;-77
2021/07/16 19:01:11;;;;;;;44.07;34.70;;;;;;;22.80;88.49;99385.69;10458843;28;20218;-79
2021/07/16 19:06:30;;;;;;;28.23;23.07;;;;;;;22.58;89.65;99392.75;10437940;28;20211;-78
2021/07/16 19:11:49;;;;;;;29.13;22.57;;;;;;;22.33;90.69;99404.34;10417106;28;20184;-78
2021/07/16 19:17:08;;;;;;;8.37;7.73;;;;;;;22.20;91.43;99414.94;10444734;28;20644;-77
2021/07/16 19:22:27;;;;;;;8.90;8.10;;;;;;;21.94;92.64;99424.91;10459112;28;20608;-78
2021/07/16 19:27:46;;;;;;;8.70;8.07;;;;;;;21.82;93.20;99441.88;10425491;28;20227;-78
2021/07/16 19:33:05;;;;;;;12.00;11.00;;;;;;;21.61;93.83;99433.59;10417587;28;20173;-81
2021/07/16 19:38:24;;;;;;;10.03;9.13;;;;;;;21.37;94.66;99429.81;10453753;28;20179;-79
2021/07/16 19:43:43;;;;;;;10.40;9.50;;;;;;;21.26;94.66;99437.84;10457031;28;20218;-79
2021/07/16 19:49:02;;;;;;;10.57;9.67;;;;;;;21.21;96.58;99452.47;10416550;28;20243;-80
2021/07/16 19:54:24;;;;;;;10.57;9.57;;;;;;;21.05;96.46;99447.88;10418734;28;20642;-79
2021/07/16 19:59:43;;;;;;;10.47;9.57;;;;;;;20.72;97.86;99467.59;10456146;28;20195;-78
2021/07/16 20:05:03;;;;;;;28.97;22.50;;;;;;;20.61;98.94;99467.22;10442536;28;20175;-79
2021/07/16 20:10:22;;;;;;;9.63;8.77;;;;;;;20.47;100.00;99464.97;10420127;28;20640;-81
2021/07/16 20:15:42;;;;;;;11.00;10.10;;;;;;;20.23;100.00;99464.63;10414703;28;20176;-80
2021/07/16 20:21:02;;;;;;;10.10;9.20;;;;;;;20.17;100.00;99480.44;10407466;28;20179;-77
2021/07/16 20:26:22;;;;;;;12.50;11.30;;;;;;;20.04;100.00;99485.25;10441655;28;20216;-77
2021/07/16 20:31:42;;;;;;;9.37;8.50;;;;;;;19.99;100.00;99487.84;10440720;28;20215;-77
2021/07/16 20:37:01;;;;;;;12.00;9.40;;;;;;;19.87;100.00;99493.47;10452755;28;20184;-75
2021/07/16 20:42:20;;;;;;;11.50;9.00;;;;;;;19.77;100.00;99506.56;10399055;28;20168;-79
2021/07/16 20:47:40;;;;;;;11.00;9.90;;;;;;;19.76;100.00;99493.06;10414779;28;20200;-77
2021/07/16 20:52:59;;;;;;;9.97;8.93;;;;;;;19.59;100.00;99505.59;10415941;28;20179;-76
2021/07/16 20:58:18;;;;;;;14.67;12.07;;;;;;;19.56;100.00;99520.44;10413312;28;20199;-81
2021/07/16 21:03:39;;;;;;;14.77;9.90;;;;;;;19.51;100.00;99540.53;10414601;28;20172;-80
2021/07/16 21:09:00;;;;;;;17.33;15.17;;;;;;;19.54;100.00;99542.44;10419820;28;20207;-80
2021/07/16 21:14:19;;;;;;;13.63;12.30;;;;;;;19.33;100.00;99559.84;10406750;28;20263;-77
2021/07/16 21:19:38;;;;;;;10.13;9.23;;;;;;;19.26;100.00;99562.88;10407591;28;20179;-77
2021/07/16 21:24:57;;;;;;;10.70;9.70;;;;;;;19.09;100.00;99572.53;10407385;28;20180;-78
2021/07/16 21:30:17;;;;;;;19.63;10.70;;;;;;;18.93;100.00;99567.03;10425704;28;20240;-75
2021/07/16 21:35:36;;;;;;;11.23;10.23;;;;;;;18.89;100.00;99560.78;10462965;28;20265;-79
2021/07/16 21:40:56;;;;;;;12.37;11.10;;;;;;;18.89;100.00;99560.78;10448052;28;20176;-80
2021/07/16 21:46:17;;;;;;;21.47;11.80;;;;;;;18.82;100.00;99557.41;10461507;28;20540;-76
2021/07/16 21:51:36;;;;;;;13.80;11.43;;;;;;;18.81;100.00;99558.63;10433673;28;20262;-81
2021/07/16 21:56:55;;;;;;;13.63;11.87;;;;;;;18.81;100.00;99570.59;10405090;28;20629;-80
2021/07/16 22:02:14;;;;;;;12.70;11.40;;;;;;;18.66;100.00;99563.84;10406116;28;20180;-77
2021/07/16 22:07:33;;;;;;;16.77;12.60;;;;;;;18.63;100.00;99577.88;10406784;28;20208;-80
2021/07/16 22:12:52;;;;;;;13.30;11.50;;;;;;;18.68;100.00;99574.56;10419387;28;20179;-80
2021/07/16 22:18:11;;;;;;;14.63;12.53;;;;;;;18.60;100.00;99560.03;10419247;28;20528;-79
2021/07/16 22:23:30;;;;;;;20.03;13.10;;;;;;;18.47;100.00;99562.00;10405326;28;20188;-79
2021/07/16 22:28:49;;;;;;;18.10;13.73;;;;;;;18.47;100.00;99566.78;10435939;28;20227;-81
2021/07/16 22:34:08;;;;;;;16.27;12.97;;;;;;;18.50;100.00;99568.69;10460980;28;20171;-81
2021/07/16 22:39:27;;;;;;;17.63;13.00;;;;;;;18.45;100.00;99569.25;10460924;28;20649;-81
2021/07/16 22:44:46;;;;;;;17.00;12.33;;;;;;;18.38;100.00;99574.22;10444416;28;20184;-81
2021/07/16 22:50:07;;;;;;;18.73;13.07;;;;;;;18.22;100.00;99577.03;10428561;28;20684;-76
2021/07/16 22:55:26;;;;;;;16.47;12.60;;;;;;;18.19;100.00;99572.31;10460299;28;20180;-79
2021/07/16 23:00:45;;;;;;;18.90;13.03;;;;;;;18.19;100.00;99569.53;10458579;28;20187;-80
2021/07/16 23:06:08;;;;;;;20.77;13.23;;;;;;;18.13;100.00;99563.72;10444591;28;20171;-77
2021/07/16 23:11:28;;;;;;;16.90;12.00;;;;;;;18.26;100.00;99558.22;10452580;28;20196;-79
2021/07/16 23:16:47;;;;;;;18.83;12.00;;;;;;;18.23;100.00;99557.09;10403197;28;20200;-79
2021/07/16 23:22:06;;;;;;;18.10;12.07;;;;;;;18.22;100.00;99551.97;10402448;28;20703;-78
2021/07/16 23:27:25;;;;;;;16.40;13.43;;;;;;;18.15;100.00;99543.78;10400721;28;21909;-79
2021/07/16 23:32:44;;;;;;;13.67;12.27;;;;;;;18.30;100.00;99539.41;10417336;28;20187;-79
2021/07/16 23:38:03;;;;;;;17.53;12.03;;;;;;;18.13;100.00;99523.94;10423176;28;20195;-77
2021/07/16 23:43:23;;;;;;;17.33;12.67;;;;;;;17.98;100.00;99531.88;10455380;28;20271;-76
2021/07/16 23:48:41;;;;;;;15.50;12.43;;;;;;;17.82;100.00;99545.81;10457957;28;20211;-78
2021/07/16 23:54:00;;;;;;;13.77;11.97;;;;;;;17.64;100.00;99545.50;10457920;28;20247;-78
2021/07/16 23:59:19;;;;;;;14.27;12.30;;;;;;;17.54;100.00;99542.19;10456454;28;20195;-79
